createdAt,value
2024-04-09T00:00:00.409Z,4.25
2024-04-09T00:02:27.000Z,4.72
2024-04-09T00:04:53.555Z,4.13
2024-04-09T00:07:20.122Z,3.88
2024-04-09T00:09:46.652Z,4.50
2024-04-09T00:12:13.343Z,4.60
2024-04-09T00:14:40.044Z,4.68
2024-04-09T00:17:06.743Z,3.75
2024-04-09T00:19:33.341Z,4.07
2024-04-09T00:21:59.917Z,4.50
2024-04-09T00:24:26.781Z,4.80
2024-04-09T00:26:53.295Z,4.28
2024-04-09T00:29:19.807Z,4.60
2024-04-09T00:31:46.284Z,3.97
2024-04-09T00:34:13.053Z,4.30
2024-04-09T00:36:39.860Z,3.95
2024-04-09T00:39:06.513Z,4.68
2024-04-09T00:54:48.309Z,4.32
2024-04-09T00:57:14.812Z,4.18
2024-04-09T00:59:42.287Z,3.80
2024-04-09T01:02:08.781Z,4.68
2024-04-09T01:04:35.562Z,4.63
2024-04-09T01:07:02.325Z,4.95
2024-04-09T01:09:28.859Z,4.20
2024-04-09T01:11:55.545Z,4.68
2024-04-09T01:14:22.209Z,4.53
2024-04-09T01:16:48.838Z,4.15
2024-04-09T01:19:15.383Z,5.00
2024-04-09T01:21:42.075Z,4.72
2024-04-09T01:24:09.050Z,4.82
2024-04-09T01:26:38.692Z,4.50
2024-04-09T01:29:05.334Z,4.63
2024-04-09T01:31:32.095Z,4.82
2024-04-09T01:33:58.949Z,4.32
2024-04-09T01:36:25.519Z,4.30
2024-04-09T01:38:52.098Z,5.10
2024-04-09T01:41:18.723Z,4.20
2024-04-09T01:43:45.239Z,4.70
2024-04-09T01:46:11.731Z,5.35
2024-04-09T02:05:25.638Z,4.60
2024-04-09T02:07:52.115Z,3.75
2024-04-09T02:10:18.666Z,4.97
2024-04-09T02:12:45.279Z,4.82
2024-04-09T02:15:12.281Z,4.78
2024-04-09T02:17:39.265Z,3.97
2024-04-09T02:25:24.408Z,4.97
2024-04-09T02:27:51.026Z,3.92
2024-04-09T02:30:17.768Z,4.07
2024-04-09T02:32:44.362Z,4.15
2024-04-09T02:35:10.945Z,4.20
2024-04-09T02:37:38.072Z,4.40
2024-04-09T02:53:28.116Z,4.80
2024-04-09T02:56:04.932Z,4.55
2024-04-09T02:58:32.673Z,4.65
2024-04-09T03:03:42.436Z,4.70
2024-04-09T03:06:10.961Z,4.82
2024-04-09T03:08:37.725Z,4.18
2024-04-09T03:22:05.823Z,5.07
2024-04-09T03:35:19.889Z,4.13
2024-04-09T03:37:46.370Z,4.03
2024-04-09T03:40:12.831Z,4.45
2024-04-09T03:42:39.401Z,4.00
2024-04-09T03:45:06.157Z,4.22
2024-04-09T03:47:32.721Z,4.90
2024-04-09T03:49:59.243Z,4.32
2024-04-09T03:52:25.717Z,5.25
2024-04-09T03:54:52.172Z,4.40
2024-04-09T03:57:18.717Z,4.57
2024-04-09T03:59:45.339Z,4.35
2024-04-09T04:02:11.863Z,5.38
2024-04-09T04:10:01.570Z,4.43
2024-04-09T04:35:17.517Z,4.00
2024-04-09T04:37:43.954Z,3.75
2024-04-09T04:42:52.511Z,3.55
2024-04-09T04:50:42.571Z,4.32
2024-04-09T05:03:56.658Z,3.80
2024-04-09T05:06:24.078Z,3.95
2024-04-09T05:34:25.563Z,3.55
2024-04-09T05:39:33.519Z,3.85
2024-04-09T05:41:59.998Z,3.95
2024-04-09T05:44:26.472Z,3.63
2024-04-09T05:46:52.978Z,3.63
2024-04-09T05:49:19.529Z,3.72
2024-04-09T05:51:46.274Z,4.28
2024-04-09T05:59:29.516Z,3.67
2024-04-09T06:01:55.972Z,3.97
2024-04-09T06:04:22.621Z,3.53
2024-04-09T06:06:49.329Z,4.75
2024-04-09T06:09:15.787Z,3.97
2024-04-09T06:14:23.589Z,4.30
2024-04-09T06:16:50.075Z,3.85
2024-04-09T06:19:16.973Z,4.90
2024-04-09T06:21:43.661Z,4.25
2024-04-09T06:24:10.218Z,4.53
2024-04-09T06:26:36.804Z,4.13
2024-04-09T06:29:03.330Z,4.50
2024-04-09T06:31:29.798Z,4.15
2024-04-09T06:33:56.384Z,4.22
2024-04-09T06:36:27.288Z,4.07
2024-04-09T06:38:54.349Z,4.15
2024-04-09T06:41:20.836Z,4.28
2024-04-09T06:43:47.274Z,4.40
2024-04-09T06:46:13.781Z,4.00
2024-04-09T06:48:40.455Z,3.60
2024-04-09T06:51:07.186Z,3.78
2024-04-09T06:53:33.658Z,3.30
2024-04-09T06:56:00.068Z,3.25
2024-04-09T06:58:26.624Z,2.80
2024-04-09T07:00:53.218Z,3.10
2024-04-09T07:03:19.760Z,3.70
2024-04-09T07:05:46.269Z,2.97
2024-04-09T07:08:12.701Z,4.53
2024-04-09T07:10:39.146Z,3.42
2024-04-09T07:13:05.662Z,2.78
2024-04-09T07:15:32.166Z,2.78
2024-04-09T07:17:58.729Z,2.78
2024-04-09T07:20:25.234Z,3.00
2024-04-09T07:22:51.676Z,2.60
2024-04-09T07:25:18.098Z,2.80
2024-04-09T07:27:44.571Z,3.03
2024-04-09T07:30:11.618Z,2.70
2024-04-09T07:35:04.755Z,3.25
2024-04-09T07:37:31.894Z,3.15
2024-04-09T07:39:58.447Z,3.55
2024-04-09T07:42:24.956Z,2.75
2024-04-09T07:44:51.410Z,2.85
2024-04-09T07:47:17.986Z,3.00
2024-04-09T07:49:44.457Z,2.92
2024-04-09T07:52:11.023Z,2.55
2024-04-09T07:54:37.647Z,2.70
2024-04-09T07:57:04.438Z,2.40
2024-04-09T07:59:30.926Z,2.75
2024-04-09T08:01:57.394Z,2.88
2024-04-09T08:04:24.116Z,3.03
2024-04-09T08:06:50.989Z,3.10
2024-04-09T08:09:17.840Z,2.92
2024-04-09T08:11:44.403Z,3.17
2024-04-09T08:14:11.485Z,3.22
2024-04-09T08:19:04.945Z,2.63
2024-04-09T08:21:31.866Z,3.22
2024-04-09T08:23:58.802Z,3.75
2024-04-09T08:26:25.308Z,2.90
2024-04-09T08:28:52.509Z,3.40
2024-04-09T08:31:28.996Z,2.92
2024-04-09T08:33:55.818Z,3.20
2024-04-09T08:36:22.405Z,3.20
2024-04-09T08:38:50.411Z,2.55
2024-04-09T08:41:16.921Z,3.33
2024-04-09T08:43:44.266Z,2.88
2024-04-09T08:46:14.408Z,3.35
2024-04-09T08:48:41.590Z,2.72
2024-04-09T08:51:10.005Z,2.90
2024-04-09T08:53:38.216Z,2.90
2024-04-09T08:56:05.707Z,2.30
2024-04-09T08:58:32.280Z,3.05
2024-04-09T09:00:58.934Z,2.45
2024-04-09T09:03:26.293Z,2.75
2024-04-09T09:06:03.111Z,2.88
2024-04-09T09:08:40.453Z,2.15
2024-04-09T09:11:06.974Z,2.58
2024-04-09T09:13:33.530Z,2.45
2024-04-09T09:15:59.999Z,2.55
2024-04-09T09:18:26.678Z,2.60
2024-04-09T09:21:04.459Z,2.00
2024-04-09T09:23:31.674Z,3.05
2024-04-09T09:25:59.219Z,2.45
2024-04-09T09:28:25.835Z,2.13
2024-04-09T09:30:56.383Z,1.83
2024-04-09T09:33:25.580Z,1.58
2024-04-09T09:35:52.424Z,1.80
2024-04-09T09:38:20.101Z,1.88
2024-04-09T09:40:47.820Z,1.88
2024-04-09T09:43:16.884Z,1.80
2024-04-09T09:45:44.729Z,1.85
2024-04-09T09:48:14.493Z,2.13
2024-04-09T09:50:42.252Z,1.70
2024-04-09T09:53:10.218Z,2.25
2024-04-09T09:55:37.662Z,2.17
2024-04-09T09:58:07.199Z,1.48
2024-04-09T10:00:36.037Z,2.03
2024-04-09T10:03:02.975Z,1.88
2024-04-09T10:07:59.583Z,2.03
2024-04-09T10:10:27.592Z,1.52
2024-04-09T10:12:54.787Z,1.90
2024-04-09T10:15:27.397Z,1.48
2024-04-09T10:17:54.890Z,1.55
2024-04-09T10:22:56.684Z,1.83
2024-04-09T10:25:25.065Z,1.63
2024-04-09T10:28:02.324Z,1.42
2024-04-09T10:30:29.802Z,1.55
2024-04-09T10:33:01.495Z,1.63
2024-04-09T10:35:28.493Z,1.40
2024-04-09T10:37:56.415Z,1.63
2024-04-09T10:40:23.832Z,1.90
2024-04-09T10:42:50.807Z,1.60
2024-04-09T10:47:48.099Z,1.30
2024-04-09T10:50:16.823Z,1.55
2024-04-09T10:52:43.628Z,1.38
2024-04-09T10:55:14.490Z,1.60
2024-04-09T10:57:41.794Z,1.65
2024-04-09T11:00:13.336Z,1.60
2024-04-09T11:02:41.750Z,1.67
2024-04-09T11:05:09.654Z,1.65
2024-04-09T11:07:37.658Z,1.30
2024-04-09T11:10:05.323Z,1.20
2024-04-09T11:15:10.681Z,1.20
2024-04-09T11:20:08.337Z,1.10
2024-04-09T11:22:35.093Z,1.60
2024-04-09T11:25:01.698Z,1.55
2024-04-09T11:27:28.291Z,1.20
2024-04-09T11:29:54.766Z,1.38
2024-04-09T11:32:21.572Z,1.55
2024-04-09T11:34:48.090Z,1.10
2024-04-09T11:37:14.843Z,1.17
2024-04-09T11:39:46.582Z,1.30
2024-04-09T11:42:13.377Z,1.35
2024-04-09T11:44:39.944Z,1.02
2024-04-09T11:47:06.472Z,0.90
2024-04-09T11:49:33.104Z,1.40
2024-04-09T11:51:59.685Z,0.90
2024-04-09T11:54:26.202Z,0.90
2024-04-09T11:56:53.197Z,0.80
2024-04-09T11:59:19.680Z,1.02
2024-04-09T12:01:46.281Z,0.90
2024-04-09T12:04:12.993Z,0.50
2024-04-09T12:06:40.346Z,0.40
2024-04-09T12:09:06.956Z,0.52
2024-04-09T12:11:33.561Z,0.50
2024-04-09T12:14:00.050Z,0.50
2024-04-09T12:16:26.494Z,0.45
2024-04-09T12:18:53.146Z,0.47
2024-04-09T12:21:19.881Z,0.60
2024-04-09T12:23:46.420Z,0.50
2024-04-09T12:26:12.919Z,0.60
2024-04-09T12:28:39.394Z,0.50
2024-04-09T12:31:05.966Z,0.50
2024-04-09T12:33:32.711Z,0.50
2024-04-09T12:35:59.271Z,0.50
2024-04-09T12:38:25.777Z,0.47
2024-04-09T12:40:52.298Z,0.65
2024-04-09T12:43:18.748Z,0.40
2024-04-09T12:45:45.660Z,1.02
2024-04-09T12:48:12.417Z,0.50
2024-04-09T12:50:39.122Z,0.77
2024-04-09T12:53:05.569Z,0.60
2024-04-09T12:55:32.005Z,0.57
2024-04-09T12:57:58.486Z,0.40
2024-04-09T13:00:48.646Z,0.43
2024-04-09T13:03:11.652Z,0.50
2024-04-09T13:05:38.607Z,0.50
2024-04-09T13:08:05.367Z,0.40
2024-04-09T13:10:31.879Z,0.90
2024-04-09T13:12:58.435Z,0.50
2024-04-09T13:17:54.460Z,0.40
2024-04-09T13:20:21.054Z,0.60
2024-04-09T13:22:47.481Z,0.68
2024-04-09T13:25:13.997Z,0.50
2024-04-09T13:27:40.485Z,0.52
2024-04-09T13:30:07.289Z,0.95
2024-04-09T13:32:33.989Z,0.70
2024-04-09T13:35:00.635Z,0.60
2024-04-09T13:37:27.084Z,0.50
2024-04-09T13:39:53.835Z,1.00
2024-04-09T13:42:20.297Z,0.50
2024-04-09T13:44:46.735Z,0.60
2024-04-09T13:47:13.322Z,0.40
2024-04-09T13:49:39.814Z,0.40
2024-04-09T13:52:06.321Z,0.60
2024-04-09T13:54:32.788Z,0.47
2024-04-09T13:56:59.275Z,0.40
2024-04-09T13:59:26.232Z,0.60
2024-04-09T14:01:52.822Z,0.52
2024-04-09T14:04:19.452Z,0.50
2024-04-09T14:06:46.009Z,0.50
2024-04-09T14:09:12.466Z,0.40
2024-04-09T14:11:38.991Z,0.50
2024-04-09T14:14:05.486Z,0.50
2024-04-09T14:16:31.936Z,0.50
2024-04-09T14:18:58.625Z,0.50
2024-04-09T14:21:25.169Z,0.32
2024-04-09T14:23:51.639Z,0.40
2024-04-09T14:26:18.343Z,0.50
2024-04-09T14:28:44.923Z,0.40
2024-04-09T14:31:13.048Z,0.40
2024-04-09T14:33:40.745Z,0.30
2024-04-09T14:36:07.542Z,0.35
2024-04-09T14:38:34.014Z,0.47
2024-04-09T14:41:00.742Z,0.38
2024-04-09T14:43:27.266Z,0.40
2024-04-09T14:45:53.773Z,0.30
2024-04-09T14:48:20.325Z,0.50
2024-04-09T14:50:46.978Z,0.45
2024-04-09T14:53:13.795Z,0.50
2024-04-09T14:55:40.535Z,0.60
2024-04-09T14:58:07.083Z,0.40
2024-04-09T15:00:37.156Z,0.47
2024-04-09T15:03:03.975Z,0.55
2024-04-09T15:05:30.676Z,1.02
2024-04-09T15:07:57.242Z,0.70
2024-04-09T15:10:23.714Z,0.60
2024-04-09T15:12:50.212Z,0.50
2024-04-09T15:15:18.859Z,0.55
2024-04-09T15:17:45.445Z,0.43
2024-04-09T15:20:12.040Z,0.60
2024-04-09T15:22:39.445Z,0.55
2024-04-09T15:27:32.583Z,0.50
2024-04-09T15:29:59.057Z,0.50
2024-04-09T15:32:25.693Z,0.50
2024-04-09T15:34:52.506Z,0.50
2024-04-09T15:37:18.968Z,0.50
2024-04-09T15:39:45.850Z,0.40
2024-04-09T15:42:12.282Z,0.30
2024-04-09T15:44:38.746Z,0.45
2024-04-09T15:47:05.338Z,0.40
2024-04-09T15:49:31.857Z,0.70
2024-04-09T15:51:58.386Z,0.50
2024-04-09T15:54:24.832Z,0.57
2024-04-09T15:56:51.365Z,0.60
2024-04-09T15:59:17.853Z,0.45
2024-04-09T16:01:44.386Z,0.43
2024-04-09T16:04:10.991Z,0.50
2024-04-09T16:06:37.489Z,0.60
2024-04-09T16:09:04.185Z,0.80
2024-04-09T16:11:30.744Z,0.55
2024-04-09T16:13:57.337Z,0.50
2024-04-09T16:16:23.964Z,0.50
2024-04-09T16:18:50.616Z,0.68
2024-04-09T16:21:17.294Z,0.60
2024-04-09T16:23:43.760Z,0.90
2024-04-09T16:26:10.308Z,0.73
2024-04-09T16:28:39.660Z,0.70
2024-04-09T16:31:06.164Z,0.60
2024-04-09T16:33:32.834Z,0.90
2024-04-09T16:35:59.498Z,0.63
2024-04-09T16:38:27.664Z,0.77
2024-04-09T16:40:55.445Z,0.70
2024-04-09T16:43:21.946Z,0.57
2024-04-09T16:45:48.527Z,0.80
2024-04-09T16:48:15.139Z,0.88
2024-04-09T16:50:46.769Z,0.82
2024-04-09T16:53:13.655Z,0.60
2024-04-09T16:55:40.219Z,0.70
2024-04-09T16:58:06.735Z,0.88
2024-04-09T17:00:33.357Z,0.70
2024-04-09T17:02:59.882Z,0.70
2024-04-09T17:05:26.416Z,0.77
2024-04-09T17:07:53.916Z,0.70
2024-04-09T17:10:20.469Z,0.70
2024-04-09T17:12:47.032Z,0.80
2024-04-09T17:15:13.494Z,1.05
2024-04-09T17:17:40.237Z,0.68
2024-04-09T17:20:07.287Z,0.82
2024-04-09T17:22:33.768Z,1.00
2024-04-09T17:25:02.919Z,1.00
2024-04-09T17:27:31.030Z,0.80
2024-04-09T17:29:57.477Z,0.70
2024-04-09T17:32:24.058Z,1.00
2024-04-09T17:34:50.619Z,0.60
2024-04-09T17:37:17.106Z,0.70
2024-04-09T17:39:43.550Z,0.90
2024-04-09T17:42:10.004Z,0.80
2024-04-09T17:44:36.498Z,0.52
2024-04-09T17:47:03.131Z,1.00
2024-04-09T17:49:29.955Z,0.90
2024-04-09T17:51:56.423Z,0.90
2024-04-09T17:54:22.914Z,0.80
2024-04-09T17:56:49.354Z,0.80
2024-04-09T17:59:15.958Z,0.70
2024-04-09T18:01:42.605Z,0.80
2024-04-09T18:04:09.606Z,0.80
2024-04-09T18:06:36.166Z,0.70
2024-04-09T18:09:02.630Z,0.80
2024-04-09T18:11:29.200Z,0.93
2024-04-09T18:13:55.846Z,0.80
2024-04-09T18:16:22.366Z,0.90
2024-04-09T18:18:51.771Z,0.80
2024-04-09T18:21:18.320Z,0.90
2024-04-09T18:23:48.043Z,0.90
2024-04-09T18:26:14.568Z,1.02
2024-04-09T18:28:41.124Z,0.70
2024-04-09T18:31:07.556Z,0.90
2024-04-09T18:33:34.164Z,0.85
2024-04-09T18:36:01.718Z,0.57
2024-04-09T18:38:28.330Z,0.63
2024-04-09T18:41:05.340Z,0.73
2024-04-09T18:43:32.693Z,0.70
2024-04-09T18:45:59.779Z,0.70
2024-04-09T18:48:26.790Z,1.00
2024-04-09T18:50:53.590Z,1.40
2024-04-09T18:53:20.171Z,1.15
2024-04-09T18:55:46.845Z,1.10
2024-04-09T18:58:13.364Z,1.10
2024-04-09T19:00:40.674Z,1.38
2024-04-09T19:03:07.295Z,1.15
2024-04-09T19:05:34.617Z,1.20
2024-04-09T19:08:02.572Z,1.50
2024-04-09T19:10:29.264Z,1.10
2024-04-09T19:12:55.986Z,1.20
2024-04-09T19:15:22.758Z,1.10
2024-04-09T19:17:49.427Z,1.20
2024-04-09T19:20:16.172Z,1.20
2024-04-09T19:22:42.785Z,1.27
2024-04-09T19:25:09.273Z,1.10
2024-04-09T19:27:35.950Z,0.88
2024-04-09T19:30:02.759Z,0.95
2024-04-09T19:32:29.597Z,0.93
2024-04-09T19:34:56.355Z,1.08
2024-04-09T19:37:22.954Z,0.90
2024-04-09T19:39:49.392Z,1.27
2024-04-09T19:42:15.882Z,1.10
2024-04-09T19:44:42.388Z,1.10
2024-04-09T19:47:08.952Z,1.30
2024-04-09T19:49:35.552Z,0.90
2024-04-09T19:52:02.056Z,1.20
2024-04-09T19:54:28.538Z,0.90
2024-04-09T19:56:55.006Z,0.93
2024-04-09T19:59:21.476Z,0.80
2024-04-09T20:01:47.939Z,0.85
2024-04-09T20:04:14.452Z,0.88
2024-04-09T20:06:41.134Z,0.90
2024-04-09T20:09:07.610Z,1.13
2024-04-09T20:11:34.823Z,1.10
2024-04-09T20:14:01.628Z,0.80
2024-04-09T20:16:28.186Z,0.80
2024-04-09T20:18:54.971Z,1.05
2024-04-09T20:21:21.533Z,0.90
2024-04-09T20:23:48.483Z,0.80
2024-04-09T20:26:15.100Z,0.90
2024-04-09T20:28:41.651Z,1.10
2024-04-09T20:31:08.169Z,0.93
2024-04-09T20:33:34.858Z,1.00
2024-04-09T20:36:01.655Z,0.80
2024-04-09T20:38:28.470Z,0.93
2024-04-09T20:40:59.315Z,1.00
2024-04-09T20:43:26.283Z,0.80
2024-04-09T20:45:53.403Z,0.85
2024-04-09T20:48:21.038Z,1.00
2024-04-09T20:50:48.896Z,1.23
2024-04-09T20:53:15.402Z,0.80
2024-04-09T20:55:41.861Z,1.13
2024-04-09T20:58:08.384Z,0.60
2024-04-09T21:00:34.868Z,0.70
2024-04-09T21:03:01.961Z,0.80
2024-04-09T21:05:28.839Z,0.70
2024-04-09T21:07:55.420Z,0.52
2024-04-09T21:10:21.876Z,0.60
2024-04-09T21:12:48.835Z,0.65
2024-04-09T21:15:15.676Z,0.63
2024-04-09T21:17:42.817Z,0.82
2024-04-09T21:20:09.889Z,0.60
2024-04-09T21:22:36.473Z,0.73
2024-04-09T21:25:03.194Z,0.57
2024-04-09T21:27:29.654Z,0.65
2024-04-09T21:29:56.269Z,0.77
2024-04-09T21:32:22.798Z,0.70
2024-04-09T21:34:49.424Z,0.60
2024-04-09T21:37:16.142Z,1.02
2024-04-09T21:39:42.686Z,0.70
2024-04-09T21:42:09.171Z,0.80
2024-04-09T21:44:35.669Z,0.93
2024-04-09T21:47:02.364Z,1.02
2024-04-09T21:49:29.021Z,0.77
2024-04-09T21:51:55.574Z,0.80
2024-04-09T21:54:22.239Z,0.60
2024-04-09T21:56:48.780Z,0.77
2024-04-09T21:59:15.381Z,0.80
2024-04-09T22:01:41.839Z,0.70
2024-04-09T22:04:08.442Z,0.90
2024-04-09T22:06:34.987Z,0.80
2024-04-09T22:09:01.541Z,0.88
2024-04-09T22:11:28.156Z,0.70
2024-04-09T22:13:56.295Z,0.70
2024-04-09T22:16:23.417Z,1.00
2024-04-09T22:18:50.025Z,0.70
2024-04-09T22:21:16.518Z,0.80
2024-04-09T22:23:43.021Z,0.90
2024-04-09T22:26:09.507Z,0.80
2024-04-09T22:28:35.968Z,0.47
2024-04-09T22:31:05.689Z,0.68
2024-04-09T22:33:32.333Z,0.63
2024-04-09T22:35:58.986Z,0.98
2024-04-09T22:38:25.650Z,1.05
2024-04-09T22:40:52.445Z,0.75
2024-04-09T22:43:18.927Z,0.77
2024-04-09T22:45:45.491Z,0.73
2024-04-09T22:48:12.174Z,0.75
2024-04-09T22:50:39.504Z,0.80
2024-04-09T22:53:06.047Z,0.80
2024-04-09T22:55:32.583Z,0.82
2024-04-09T22:57:59.231Z,0.75
2024-04-09T23:00:25.862Z,0.80
2024-04-09T23:02:52.493Z,0.65
2024-04-09T23:05:19.168Z,0.70
2024-04-09T23:07:45.717Z,0.63
2024-04-09T23:10:12.170Z,0.55
2024-04-09T23:12:38.742Z,0.95
2024-04-09T23:15:05.476Z,0.80
2024-04-09T23:17:32.095Z,0.70
2024-04-09T23:19:58.889Z,0.93
2024-04-09T23:22:25.658Z,0.50
2024-04-09T23:24:52.845Z,0.70
2024-04-09T23:27:19.332Z,1.00
2024-04-09T23:29:45.809Z,0.70
2024-04-09T23:32:12.274Z,0.80
2024-04-09T23:34:38.951Z,0.65
2024-04-09T23:37:05.382Z,0.73
2024-04-09T23:39:31.879Z,0.80
2024-04-09T23:42:04.641Z,0.90
2024-04-09T23:44:32.457Z,0.60
2024-04-09T23:46:59.104Z,0.80
2024-04-09T23:49:25.594Z,0.70
2024-04-09T23:51:52.832Z,0.95
2024-04-09T23:54:19.515Z,0.57
2024-04-09T23:56:46.041Z,0.77
2024-04-09T23:59:12.543Z,0.52
